CDK weather

George T Lewis Airport
Cedar Key, Florida, United States

Public forecast

Using degrees Fahrenheit for public forecast. Weather courtesy of forecast.io.

METAR (pilot weather report)

Closest report is Crystal River Airport, 29.8 nm (55.1 km) ESE. Retrieved 2019/09/16 23:35 UTC (0 seconds ago):

KCGC 162335Z AUTO 28003KT 10SM CLR 28/24 A2995 RMK AO2

TAF (pilot weather forecast)

Closest forecast is Gainesville Regional Airport, 52.5 nm (97.3 km) NE. Retrieved 2019/09/16 18:28 UTC (5 hours ago):

TAF KGNV 161725Z 1618/1718 02011KT P6SM SCT040 FM162200 35008KT P6SM FEW045 FM170400 31002KT 6SM BR FEW250 FM171500 35007KT P6SM SCT250